createdAt,value
2022-09-16T00:01:21.511Z,0.40
2022-09-16T00:03:54.748Z,1.13
2022-09-16T00:06:25.720Z,0.82
2022-09-16T00:08:56.216Z,0.25
2022-09-16T00:11:24.880Z,0.73
2022-09-16T00:13:52.898Z,0.80
2022-09-16T00:16:23.377Z,0.55
2022-09-16T00:18:55.561Z,0.38
2022-09-16T00:21:24.117Z,0.50
2022-09-16T00:23:52.513Z,0.90
2022-09-16T00:26:20.782Z,0.50
2022-09-16T00:28:49.846Z,0.80
2022-09-16T00:31:18.400Z,0.38
2022-09-16T00:33:46.430Z,0.73
2022-09-16T00:36:18.438Z,1.05
2022-09-16T00:38:46.759Z,0.68
2022-09-16T00:41:22.124Z,0.95
2022-09-16T00:43:53.937Z,0.73
2022-09-16T00:46:26.483Z,1.27
2022-09-16T00:48:54.795Z,0.50
2022-09-16T00:51:25.420Z,0.30
2022-09-16T00:54:00.206Z,0.82
2022-09-16T00:56:31.110Z,0.43
2022-09-16T00:59:04.599Z,0.82
2022-09-16T01:01:33.485Z,0.77
2022-09-16T01:04:04.999Z,0.60
2022-09-16T01:06:39.521Z,0.50
2022-09-16T01:09:07.929Z,0.70
2022-09-16T01:11:36.154Z,1.10
2022-09-16T01:14:19.586Z,0.40
2022-09-16T01:16:58.195Z,1.65
2022-09-16T01:19:49.871Z,0.80
2022-09-16T01:22:35.744Z,0.70
2022-09-16T01:25:14.616Z,0.93
2022-09-16T01:27:59.440Z,0.60
2022-09-16T01:30:48.821Z,0.77
2022-09-16T01:33:26.621Z,1.20
2022-09-16T01:36:09.706Z,1.37
2022-09-16T01:38:55.462Z,0.30
2022-09-16T01:41:31.143Z,1.03
2022-09-16T01:44:04.290Z,0.63
2022-09-16T01:46:41.530Z,0.98
2022-09-16T01:49:19.444Z,0.70
2022-09-16T01:51:54.626Z,0.40
2022-09-16T01:54:28.474Z,0.50
2022-09-16T01:57:03.625Z,0.60
2022-09-16T01:59:39.712Z,1.05
2022-09-16T02:02:15.464Z,0.50
2022-09-16T02:04:51.113Z,0.30
2022-09-16T02:07:24.410Z,0.40
2022-09-16T02:09:58.397Z,0.70
2022-09-16T02:12:30.391Z,0.60
2022-09-16T02:15:03.729Z,0.65
2022-09-16T02:17:37.236Z,0.98
2022-09-16T02:20:09.253Z,0.70
2022-09-16T02:22:42.315Z,0.40
2022-09-16T02:25:12.323Z,0.80
2022-09-16T02:27:42.429Z,0.97
2022-09-16T02:30:16.014Z,0.30
2022-09-16T02:32:48.351Z,0.40
2022-09-16T02:35:20.124Z,0.40
2022-09-16T02:37:53.287Z,0.70
2022-09-16T02:40:25.751Z,0.47
2022-09-16T02:42:56.240Z,0.40
2022-09-16T02:45:27.131Z,0.95
2022-09-16T02:48:03.853Z,0.50
2022-09-16T02:50:39.847Z,0.30
2022-09-16T02:53:14.977Z,0.50
2022-09-16T02:55:55.972Z,1.70
2022-09-16T02:58:24.344Z,1.02
2022-09-16T03:00:55.682Z,0.73
2022-09-16T03:03:25.128Z,0.22
2022-09-16T03:06:14.088Z,0.87
2022-09-16T03:08:43.545Z,1.40
2022-09-16T03:11:30.689Z,1.73
2022-09-16T03:14:17.382Z,0.98
2022-09-16T03:16:53.994Z,1.27
2022-09-16T03:19:32.225Z,0.63
2022-09-16T03:22:07.528Z,1.50
2022-09-16T03:24:48.412Z,1.03
2022-09-16T03:27:21.188Z,0.80
2022-09-16T03:29:58.821Z,1.00
2022-09-16T03:32:31.597Z,0.90
2022-09-16T03:35:04.515Z,0.57
2022-09-16T03:37:35.553Z,1.17
2022-09-16T03:40:08.487Z,2.17
2022-09-16T03:42:39.302Z,0.45
2022-09-16T03:45:08.323Z,0.77
2022-09-16T03:47:36.358Z,0.77
2022-09-16T03:50:06.327Z,0.85
2022-09-16T03:52:34.313Z,1.30
2022-09-16T03:55:02.402Z,0.93
2022-09-16T03:57:30.705Z,0.80
2022-09-16T03:59:58.713Z,1.20
2022-09-16T04:02:29.196Z,0.40
2022-09-16T04:04:57.188Z,1.23
2022-09-16T04:07:26.775Z,0.70
2022-09-16T04:09:55.027Z,0.40
2022-09-16T04:12:23.032Z,0.60
2022-09-16T04:14:51.809Z,1.00
2022-09-16T04:17:19.875Z,0.93
2022-09-16T04:19:47.875Z,0.55
2022-09-16T04:22:15.975Z,0.65
2022-09-16T04:24:45.305Z,1.57
2022-09-16T04:27:13.299Z,0.50
2022-09-16T04:29:41.292Z,0.87
2022-09-16T04:32:09.260Z,1.30
2022-09-16T04:34:37.262Z,1.98
2022-09-16T04:37:05.338Z,0.60
2022-09-16T04:39:33.368Z,1.10
2022-09-16T04:42:04.785Z,1.00
2022-09-16T04:44:32.753Z,0.80
2022-09-16T04:47:00.998Z,0.70
2022-09-16T04:49:29.113Z,0.60
2022-09-16T04:51:57.536Z,0.80
2022-09-16T04:54:25.526Z,0.90
2022-09-16T04:56:53.612Z,1.02
2022-09-16T04:59:23.258Z,0.77
2022-09-16T05:01:51.325Z,0.93
2022-09-16T05:04:19.330Z,1.58
2022-09-16T05:06:47.400Z,0.63
2022-09-16T05:09:15.343Z,0.60
2022-09-16T05:11:43.448Z,0.40
2022-09-16T05:14:14.644Z,0.85
2022-09-16T05:16:44.128Z,0.47
2022-09-16T05:19:13.337Z,0.57
2022-09-16T05:21:41.921Z,0.40
2022-09-16T05:24:12.599Z,1.33
2022-09-16T05:26:43.016Z,1.90
2022-09-16T05:29:14.189Z,0.82
2022-09-16T05:31:46.126Z,2.08
2022-09-16T05:34:16.994Z,1.15
2022-09-16T05:36:47.684Z,0.60
2022-09-16T05:39:23.618Z,1.08
2022-09-16T05:41:55.854Z,0.80
2022-09-16T05:44:24.299Z,0.90
2022-09-16T05:46:54.027Z,1.48
2022-09-16T05:49:23.809Z,0.98
2022-09-16T05:51:52.370Z,0.60
2022-09-16T05:54:20.808Z,1.20
2022-09-16T05:56:49.268Z,0.70
2022-09-16T05:59:18.222Z,1.08
2022-09-16T06:01:46.909Z,1.48
2022-09-16T06:04:16.847Z,1.10
2022-09-16T06:06:46.121Z,0.73
2022-09-16T06:09:16.131Z,1.07
2022-09-16T06:11:46.272Z,0.95
2022-09-16T06:14:15.473Z,0.87
2022-09-16T06:16:43.671Z,1.60
2022-09-16T06:19:13.956Z,0.80
2022-09-16T06:21:44.578Z,0.90
2022-09-16T06:24:14.097Z,1.17
2022-09-16T06:26:43.945Z,0.70
2022-09-16T06:29:12.595Z,1.45
2022-09-16T06:31:41.278Z,0.70
2022-09-16T06:34:14.009Z,1.13
2022-09-16T06:36:45.283Z,1.38
2022-09-16T06:39:15.320Z,0.90
2022-09-16T06:41:43.502Z,0.60
2022-09-16T06:44:11.815Z,0.68
2022-09-16T06:46:39.967Z,1.05
2022-09-16T06:49:08.096Z,0.80
2022-09-16T06:51:36.986Z,1.25
2022-09-16T06:54:07.722Z,0.77
2022-09-16T06:56:39.166Z,0.68
2022-09-16T06:59:07.974Z,1.00
2022-09-16T07:01:36.576Z,2.55
2022-09-16T07:04:06.537Z,3.03
2022-09-16T07:07:07.508Z,2.70
2022-09-16T07:09:27.223Z,3.67
2022-09-16T07:11:55.333Z,3.88
2022-09-16T07:14:23.476Z,3.75
2022-09-16T07:16:51.475Z,4.05
2022-09-16T07:19:19.791Z,3.95
2022-09-16T07:21:48.661Z,3.30
2022-09-16T07:24:16.653Z,3.60
2022-09-16T07:26:46.840Z,4.00
2022-09-16T07:29:16.666Z,3.83
2022-09-16T07:31:44.661Z,4.18
2022-09-16T07:34:13.934Z,4.35
2022-09-16T07:36:43.761Z,4.60
2022-09-16T07:39:12.731Z,4.50
2022-09-16T07:41:42.990Z,5.25
2022-09-16T07:44:14.556Z,5.20
2022-09-16T07:46:42.996Z,5.45
2022-09-16T07:49:14.245Z,5.20
2022-09-16T07:51:42.691Z,5.00
2022-09-16T07:54:15.517Z,5.40
2022-09-16T07:56:44.746Z,5.53
2022-09-16T07:59:18.724Z,6.20
2022-09-16T08:01:47.501Z,5.78
2022-09-16T08:04:15.645Z,6.30
2022-09-16T08:06:43.635Z,6.45
2022-09-16T08:09:37.323Z,7.88
2022-09-16T08:12:00.102Z,8.73
2022-09-16T08:14:29.529Z,9.05
2022-09-16T08:16:57.617Z,8.57
2022-09-16T08:19:25.687Z,9.65
2022-09-16T08:21:53.669Z,9.48
2022-09-16T08:24:21.831Z,9.63
2022-09-16T08:26:51.907Z,9.60
2022-09-16T08:29:19.925Z,9.93
2022-09-16T08:31:49.428Z,9.40
2022-09-16T08:34:17.453Z,12.32
2022-09-16T08:36:45.856Z,10.48
2022-09-16T08:39:15.081Z,13.60
2022-09-16T08:41:56.177Z,15.93
2022-09-16T08:44:39.036Z,16.20
2022-09-16T08:47:30.252Z,17.60
2022-09-16T08:50:01.385Z,19.88
2022-09-16T08:52:32.186Z,21.88
2022-09-16T08:55:03.680Z,24.30
2022-09-16T08:57:34.135Z,27.75
2022-09-16T09:00:05.645Z,31.88
2022-09-16T09:05:19.569Z,56.47
2022-09-16T09:08:01.497Z,58.95
2022-09-16T09:10:36.682Z,62.17
2022-09-16T09:13:13.912Z,62.53
2022-09-16T09:15:47.726Z,64.43
2022-09-16T09:18:32.028Z,61.65
2022-09-16T09:21:14.680Z,59.65
2022-09-16T09:23:59.629Z,64.43
2022-09-16T09:26:34.429Z,64.55
2022-09-16T09:29:22.171Z,62.30
2022-09-16T09:31:56.563Z,62.17
2022-09-16T09:34:37.186Z,63.03
2022-09-16T09:37:24.899Z,63.70
2022-09-16T09:40:06.905Z,65.50
2022-09-16T09:42:38.378Z,61.92
2022-09-16T09:45:17.175Z,60.60
2022-09-16T09:47:49.301Z,65.05
2022-09-16T09:50:23.804Z,65.85
2022-09-16T09:53:00.025Z,64.88
2022-09-16T09:55:34.643Z,70.90
2022-09-16T09:58:32.238Z,68.80
2022-09-16T10:01:00.379Z,67.68
2022-09-16T10:03:29.946Z,69.03
2022-09-16T10:05:59.435Z,62.85
2022-09-16T10:08:31.299Z,64.07
2022-09-16T10:11:01.378Z,66.35
2022-09-16T10:13:33.348Z,65.00
2022-09-16T10:16:15.523Z,67.45
2022-09-16T10:18:45.209Z,67.55
2022-09-16T10:21:17.621Z,66.47
2022-09-16T10:23:55.253Z,67.18
2022-09-16T10:26:24.943Z,66.43
2022-09-16T10:29:01.146Z,67.70
2022-09-16T10:31:34.502Z,57.05
2022-09-16T10:34:04.046Z,70.38
2022-09-16T10:36:36.482Z,68.63
2022-09-16T10:39:05.877Z,68.15
2022-09-16T10:41:36.176Z,66.97
2022-09-16T10:44:08.527Z,66.15
2022-09-16T10:46:36.783Z,64.63
2022-09-16T10:49:13.316Z,66.50
2022-09-16T10:51:44.740Z,68.90
2022-09-16T10:54:25.940Z,66.45
2022-09-16T10:56:54.036Z,60.22
2022-09-16T10:59:22.304Z,69.15
2022-09-16T11:02:03.462Z,58.85
2022-09-16T11:05:01.527Z,65.88
2022-09-16T11:07:46.430Z,61.70
2022-09-16T11:10:21.571Z,60.58
2022-09-16T11:13:17.241Z,64.53
2022-09-16T11:16:01.252Z,59.95
2022-09-16T11:18:50.754Z,62.28
2022-09-16T11:21:41.245Z,61.28
2022-09-16T11:24:43.647Z,58.33
2022-09-16T11:27:18.436Z,61.00
2022-09-16T11:30:08.645Z,55.92
2022-09-16T11:33:01.534Z,57.20
2022-09-16T11:36:03.798Z,57.17
2022-09-16T11:38:43.851Z,55.83
2022-09-16T11:41:22.888Z,62.78
2022-09-16T11:44:20.573Z,60.03
2022-09-16T11:46:59.399Z,62.40
2022-09-16T11:49:42.845Z,70.10
2022-09-16T11:52:26.138Z,71.07
2022-09-16T11:55:08.557Z,67.30
2022-09-16T11:57:40.599Z,72.90
2022-09-16T12:00:13.591Z,72.85
2022-09-16T12:02:47.369Z,75.65
2022-09-16T12:05:20.819Z,65.07
2022-09-16T12:07:55.146Z,67.45
2022-09-16T12:10:26.780Z,74.80
2022-09-16T12:13:01.617Z,73.35
2022-09-16T12:18:11.821Z,63.88
2022-09-16T12:20:43.910Z,69.10
2022-09-16T12:23:18.536Z,75.53
2022-09-16T12:26:01.283Z,76.15
2022-09-16T12:28:35.867Z,71.25
2022-09-16T12:31:15.390Z,83.43
2022-09-16T12:33:50.683Z,72.80
2022-09-16T12:36:23.951Z,64.45
2022-09-16T12:38:52.302Z,64.00
2022-09-16T12:41:39.102Z,68.28
2022-09-16T12:44:34.474Z,57.42
2022-09-16T12:47:19.764Z,68.55
2022-09-16T12:50:24.230Z,61.65
2022-09-16T12:53:14.418Z,60.85
2022-09-16T12:55:57.902Z,58.60
2022-09-16T12:58:53.163Z,57.30
2022-09-16T13:01:26.819Z,54.17
2022-09-16T13:03:58.081Z,59.90
2022-09-16T13:06:28.880Z,57.75
2022-09-16T13:08:58.363Z,60.70
2022-09-16T13:12:16.579Z,55.25
2022-09-16T13:14:24.059Z,63.00
2022-09-16T13:16:58.835Z,56.90
2022-09-16T13:19:37.183Z,59.10
2022-09-16T13:22:19.185Z,59.33
2022-09-16T13:24:50.653Z,59.17
2022-09-16T13:27:31.855Z,58.80
2022-09-16T13:30:31.561Z,58.58
2022-09-16T13:33:03.756Z,58.67
2022-09-16T13:35:43.214Z,62.40
2022-09-16T13:38:24.808Z,54.67
2022-09-16T13:40:58.533Z,54.35
2022-09-16T13:43:35.903Z,56.30
2022-09-16T13:46:07.270Z,55.40
2022-09-16T13:48:43.978Z,54.42
2022-09-16T13:51:19.526Z,60.85
2022-09-16T13:53:49.518Z,61.20
2022-09-16T13:56:49.717Z,77.72
2022-09-16T13:59:36.645Z,66.80
2022-09-16T14:02:16.290Z,69.80
2022-09-16T14:05:04.796Z,60.72
2022-09-16T14:07:43.552Z,61.22
2022-09-16T14:10:19.236Z,73.85
2022-09-16T14:12:58.319Z,74.18
2022-09-16T14:15:27.355Z,76.93
2022-09-16T14:18:01.453Z,79.15
2022-09-16T14:20:32.081Z,80.22
2022-09-16T14:23:05.280Z,182.50
2022-09-16T14:25:36.282Z,84.05
2022-09-16T14:28:26.302Z,86.03
2022-09-16T14:30:57.253Z,85.50
2022-09-16T14:33:29.676Z,84.22
2022-09-16T14:36:00.822Z,82.13
2022-09-16T14:39:07.147Z,79.13
2022-09-16T14:41:28.214Z,78.15
2022-09-16T14:44:00.829Z,74.63
2022-09-16T14:46:28.815Z,70.80
2022-09-16T14:48:56.865Z,70.15
2022-09-16T14:51:28.426Z,71.40
2022-09-16T14:54:13.867Z,72.45
2022-09-16T14:56:42.210Z,73.15
2022-09-16T14:59:13.492Z,70.45
2022-09-16T15:01:42.390Z,72.85
2022-09-16T15:04:15.708Z,73.22
2022-09-16T15:06:49.920Z,75.20
2022-09-16T15:09:24.553Z,74.75
2022-09-16T15:11:56.034Z,73.95
2022-09-16T15:14:25.067Z,76.13
2022-09-16T15:16:55.584Z,82.90
2022-09-16T15:19:29.444Z,76.95
2022-09-16T15:21:59.375Z,73.30
2022-09-16T15:24:31.234Z,72.25
2022-09-16T15:27:00.759Z,72.45
2022-09-16T15:29:33.927Z,70.22
2022-09-16T15:32:19.609Z,69.18
2022-09-16T15:34:49.656Z,68.82
2022-09-16T15:37:35.676Z,67.13
2022-09-16T15:40:25.569Z,72.63
2022-09-16T15:43:05.658Z,66.50
2022-09-16T15:45:34.103Z,69.47
2022-09-16T15:48:05.945Z,70.88
2022-09-16T15:50:42.146Z,69.28
2022-09-16T15:53:17.637Z,70.25
2022-09-16T15:55:55.762Z,68.35
2022-09-16T15:58:34.124Z,71.38
2022-09-16T16:01:05.705Z,69.38
2022-09-16T16:03:39.180Z,69.05
2022-09-16T16:06:07.822Z,70.85
2022-09-16T16:08:43.500Z,78.07
2022-09-16T16:11:14.074Z,73.38
2022-09-16T16:13:42.652Z,72.53
2022-09-16T16:16:11.668Z,70.30
2022-09-16T16:18:40.584Z,72.50
2022-09-16T16:21:10.483Z,75.60
2022-09-16T16:23:40.350Z,71.90
2022-09-16T16:26:10.482Z,74.20
2022-09-16T16:28:39.070Z,72.15
2022-09-16T16:31:15.619Z,77.22
2022-09-16T16:33:45.061Z,76.53
2022-09-16T16:36:14.366Z,78.57
2022-09-16T16:38:43.827Z,75.78
2022-09-16T16:41:12.415Z,80.65
2022-09-16T16:43:40.706Z,80.28
2022-09-16T16:46:09.040Z,80.78
2022-09-16T16:48:38.188Z,79.10
2022-09-16T16:51:08.847Z,77.72
2022-09-16T16:53:37.567Z,75.10
2022-09-16T16:56:14.528Z,76.50
2022-09-16T16:58:43.407Z,78.38
2022-09-16T17:01:13.395Z,17.05
2022-09-16T17:03:41.977Z,17.20
2022-09-16T17:06:10.609Z,16.95
2022-09-16T17:08:38.985Z,17.30
2022-09-16T17:11:11.063Z,17.45
2022-09-16T17:13:40.707Z,16.92
2022-09-16T17:16:10.060Z,17.42
2022-09-16T17:18:38.988Z,17.48
2022-09-16T17:21:09.332Z,15.75
2022-09-16T17:23:37.924Z,15.75
2022-09-16T17:26:06.906Z,17.08
2022-09-16T17:28:37.171Z,16.10
2022-09-16T17:31:10.120Z,15.65
2022-09-16T17:33:38.537Z,16.30
2022-09-16T17:36:08.984Z,16.00
2022-09-16T17:38:37.545Z,17.63
2022-09-16T17:41:07.680Z,18.17
2022-09-16T17:43:38.321Z,17.23
2022-09-16T17:46:08.594Z,17.35
2022-09-16T17:48:38.046Z,16.80
2022-09-16T17:51:07.209Z,17.80
2022-09-16T17:53:35.601Z,17.00
2022-09-16T17:56:05.681Z,17.55
2022-09-16T17:58:34.341Z,17.48
2022-09-16T18:01:08.582Z,16.42
2022-09-16T18:03:37.301Z,17.42
2022-09-16T18:06:07.354Z,16.77
2022-09-16T18:08:36.069Z,17.48
2022-09-16T18:11:05.208Z,17.73
2022-09-16T18:13:33.619Z,17.60
2022-09-16T18:16:08.576Z,16.90
2022-09-16T18:18:37.497Z,17.00
2022-09-16T18:21:06.564Z,17.60
2022-09-16T18:23:35.217Z,17.30
2022-09-16T18:26:06.564Z,17.50
2022-09-16T18:28:58.295Z,17.60
2022-09-16T18:31:26.485Z,18.05
2022-09-16T18:33:55.466Z,17.70
2022-09-16T18:36:25.510Z,17.73
2022-09-16T18:38:54.704Z,17.60
2022-09-16T18:41:24.461Z,17.50
2022-09-16T18:43:54.845Z,17.58
2022-09-16T18:46:26.816Z,18.27
2022-09-16T18:48:55.983Z,18.00
2022-09-16T18:51:25.339Z,18.10
2022-09-16T18:53:55.687Z,18.52
2022-09-16T18:56:25.246Z,18.63
2022-09-16T18:59:17.275Z,18.88
2022-09-16T19:01:46.590Z,17.67
2022-09-16T19:04:14.654Z,17.80
2022-09-16T19:06:45.130Z,18.77
2022-09-16T19:09:15.169Z,18.60
2022-09-16T19:11:43.857Z,18.48
2022-09-16T19:14:14.131Z,16.88
2022-09-16T19:16:45.139Z,16.38
2022-09-16T19:19:15.347Z,16.77
2022-09-16T19:21:44.371Z,17.08
2022-09-16T19:24:15.014Z,17.67
2022-09-16T19:26:45.205Z,16.60
2022-09-16T19:29:14.426Z,16.33
2022-09-16T19:31:45.864Z,16.55
2022-09-16T19:34:14.826Z,17.50
2022-09-16T19:36:43.519Z,18.25
2022-09-16T19:39:12.459Z,17.08
2022-09-16T19:41:41.565Z,17.48
2022-09-16T19:44:14.281Z,17.15
2022-09-16T19:46:44.910Z,16.30
2022-09-16T19:49:17.629Z,17.85
2022-09-16T19:51:45.650Z,17.90
2022-09-16T19:54:13.834Z,18.02
2022-09-16T19:56:44.214Z,18.13
2022-09-16T19:59:15.077Z,17.75
2022-09-16T20:01:44.511Z,16.90
2022-09-16T20:04:12.572Z,16.67
2022-09-16T20:06:42.496Z,17.08
2022-09-16T20:09:12.752Z,16.92
2022-09-16T20:11:42.829Z,16.88
2022-09-16T20:14:15.493Z,17.48
2022-09-16T20:16:45.349Z,17.20
2022-09-16T20:19:15.429Z,16.65
2022-09-16T20:21:44.148Z,17.13
2022-09-16T20:24:15.475Z,16.42
2022-09-16T20:26:43.535Z,16.13
2022-09-16T20:29:11.523Z,17.25
2022-09-16T20:31:39.572Z,17.17
2022-09-16T20:34:09.064Z,16.30
2022-09-16T20:36:39.474Z,16.25
2022-09-16T20:39:08.928Z,16.33
2022-09-16T20:41:40.233Z,16.40
2022-09-16T20:44:08.828Z,16.25
2022-09-16T20:46:38.818Z,16.30
2022-09-16T20:49:12.534Z,16.10
2022-09-16T20:51:40.918Z,16.42
2022-09-16T20:54:10.379Z,16.60
2022-09-16T20:56:39.860Z,16.77
2022-09-16T20:59:08.482Z,16.50
2022-09-16T21:01:40.138Z,16.48
2022-09-16T21:04:13.618Z,16.73
2022-09-16T21:06:41.801Z,16.60
2022-09-16T21:09:14.126Z,16.60
2022-09-16T21:11:43.668Z,16.20
2022-09-16T21:14:15.131Z,16.10
2022-09-16T21:16:44.113Z,16.05
2022-09-16T21:19:13.873Z,16.35
2022-09-16T21:21:44.265Z,15.55
2022-09-16T21:24:13.232Z,15.70
2022-09-16T21:26:42.061Z,16.00
2022-09-16T21:29:12.497Z,15.70
2022-09-16T21:31:42.022Z,16.10
2022-09-16T21:34:15.929Z,16.23
2022-09-16T21:36:44.724Z,16.33
2022-09-16T21:39:15.317Z,16.23
2022-09-16T21:41:44.465Z,16.15
2022-09-16T21:44:13.097Z,15.98
2022-09-16T21:46:45.186Z,15.70
2022-09-16T21:49:22.902Z,16.17
2022-09-16T21:51:51.997Z,16.60
2022-09-16T21:54:20.666Z,16.52
2022-09-16T21:56:50.094Z,16.25
2022-09-16T21:59:19.734Z,16.80
2022-09-16T22:01:49.460Z,16.33
2022-09-16T22:04:21.234Z,16.05
2022-09-16T22:06:49.898Z,16.33
2022-09-16T22:09:18.616Z,16.58
2022-09-16T22:11:46.630Z,16.23
2022-09-16T22:14:14.832Z,16.33
2022-09-16T22:16:42.898Z,16.30
2022-09-16T22:19:12.918Z,16.40
2022-09-16T22:21:44.158Z,16.40
2022-09-16T22:24:12.640Z,16.73
2022-09-16T22:26:40.690Z,16.05
2022-09-16T22:29:09.889Z,16.35
2022-09-16T22:31:39.381Z,16.23
2022-09-16T22:34:07.896Z,16.50
2022-09-16T22:36:37.502Z,16.20
2022-09-16T22:39:08.845Z,16.17
2022-09-16T22:41:36.997Z,15.93
2022-09-16T22:44:05.648Z,16.30
2022-09-16T22:46:35.859Z,16.00
2022-09-16T22:49:03.885Z,16.02
2022-09-16T22:51:32.709Z,16.10
2022-09-16T22:54:00.664Z,16.25
2022-09-16T22:56:32.305Z,16.08
2022-09-16T22:59:02.393Z,16.10
2022-09-16T23:01:32.916Z,16.65
2022-09-16T23:04:03.080Z,15.80
2022-09-16T23:06:32.724Z,16.20
2022-09-16T23:09:01.386Z,16.13
2022-09-16T23:11:32.860Z,15.90
2022-09-16T23:14:01.637Z,16.40
2022-09-16T23:16:32.923Z,15.82
2022-09-16T23:19:03.156Z,16.13
2022-09-16T23:21:32.038Z,16.25
2022-09-16T23:24:01.966Z,16.38
2022-09-16T23:26:34.085Z,16.55
2022-09-16T23:29:03.436Z,15.80
2022-09-16T23:31:33.157Z,16.25
2022-09-16T23:34:01.865Z,16.17
2022-09-16T23:36:31.412Z,15.93
2022-09-16T23:39:01.062Z,16.10
2022-09-16T23:41:29.361Z,16.08
2022-09-16T23:43:58.810Z,16.17
2022-09-16T23:46:28.875Z,16.40
2022-09-16T23:48:56.994Z,16.67
2022-09-16T23:51:28.405Z,16.65
2022-09-16T23:53:57.009Z,16.40
2022-09-16T23:56:25.575Z,16.52
2022-09-16T23:58:53.797Z,16.00
